This is the latest recevied weather packets stored in our database for station/object SP8PUB-10. If no packets are shown the sender has not sent any weather packets the latest 10 day(s).
| Time | Temp. | Humidity | Pressure | Rain* | Wind** | Luminosity | Snow |
|---|---|---|---|---|---|---|---|
| 1777565119 | 12.22° C | 40% | 1026.5 hPa | - | - | - | - |
| 1777564219 | 12.78° C | 40% | 1026.3 hPa | - | - | - | - |
| 1777563319 | 12.78° C | 38% | 1026.7 hPa | - | - | - | - |
| 1777562419 | 12.78° C | 39% | 1026.6 hPa | - | - | - | - |
| 1777561519 | 12.78° C | 41% | 1026.8 hPa | - | - | - | - |
| 1777560619 | 13.33° C | 41% | 1027.1 hPa | - | - | - | - |
| 1777558818 | 12.78° C | 42% | 1027.5 hPa | - | - | - | - |
| 1777557918 | 11.67° C | 44% | 1027.5 hPa | - | - | - | - |
| 1777555218 | 11.67° C | 44% | 1027.9 hPa | - | - | - | - |
| 1777554318 | 12.22° C | 43% | 1028 hPa | - | - | - | - |
| 1777553418 | 12.78° C | 43% | 1028.1 hPa | - | - | - | - |
| 1777552518 | 12.22° C | 43% | 1028.2 hPa | - | - | - | - |
| 1777548017 | 12.22° C | 42% | 1029.3 hPa | - | - | - | - |
| 1777545317 | 11.11° C | 43% | 1029.6 hPa | - | - | - | - |
| 1777543521 | 11.11° C | 42% | 1030 hPa | - | - | - | - |
| 1777542621 | 10.56° C | 42% | 1030 hPa | - | - | - | - |
| 1777541721 | 10.56° C | 43% | 1030.1 hPa | - | - | - | - |
| 1777540821 | 11.67° C | 41% | 1030.3 hPa | - | - | - | - |
| 1777539921 | 13.89° C | 39% | 1030.3 hPa | - | - | - | - |
| 1777538120 | 19.44° C | 34% | 1030.5 hPa | - | - | - | - |
| 1777537220 | 20.56° C | 34% | 1030.8 hPa | - | - | - | - |
| 1777536320 | 19.44° C | 34% | 1030.9 hPa | - | - | - | - |
| 1777535420 | 21.11° C | 34% | 1030.8 hPa | - | - | - | - |
| 1777534520 | 21.11° C | 35% | 1030.8 hPa | - | - | - | - |
| 1777533620 | 20° C | 36% | 1031 hPa | - | - | - | - |
* Rain since midnight (hover to see other rain measurements)
** Current wind speed in m/s (hover to see current wind gust speed)